Alyeska Resort
Hourly Weather - Mid Mountian Site
ALY_MID_HR 8/31/2016
CLICK TO VIEW GRAPH!!

        DATE  TIME   Air   H2o   H2o   New  Snow  BATT   Rel
                    Temp  Inch Since  Snow Depth  Volt  Hum%
                      F   1HR  0600   1HR         AVG   AVG

   8/31/2016 21:00    57  0.00  0.00  48.5  4.83 13.09    64
   8/31/2016 20:00    61  0.00  0.00  48.4  4.53 13.07    57
   8/31/2016 19:00    61  0.00  0.00  48.7  4.73 13.05    59
   8/31/2016 18:00    65  0.00  0.00  49.0  3.63 13.05    54
   8/31/2016 17:00    65  0.00  0.00  49.2  5.81 13.06    53
   8/31/2016 16:00    62  0.00  0.00  49.5  2.95 13.07    60
   8/31/2016 15:00    60  0.00  0.00  50.4  5.06 13.10    64
   8/31/2016 14:00    57  0.00  0.00  52.1  2.85 13.13    63
   8/31/2016 13:00    54  0.00  0.00  66.2  9.99 13.16    59
   8/31/2016 12:00    53  0.00  0.00  68.0  3.66 13.20    60
   8/31/2016 11:00    52  0.00  0.00  57.9  9.13 13.23    60
   8/31/2016 10:00    47  0.00  0.00  57.8 27.28 13.23    69
   8/31/2016 09:00    48  0.00  0.00  59.7 26.94 13.22    65
   8/31/2016 08:00    49  0.00  0.00  61.9 27.28 13.21    61
   8/31/2016 07:00    50  0.00  0.00  63.6 27.75 13.20    57
   8/31/2016 06:00    52  0.00  0.00  63.9  8.14 13.19    53
   8/31/2016 05:00    52  0.00  0.00  63.3  4.88 13.18    52
   8/31/2016 04:00    53  0.00  0.00  60.0  4.28 13.18    53
   8/31/2016 03:00    53  0.00  0.00  55.8  7.12 13.17    54
   8/31/2016 02:00    54  0.00  0.00  52.7  5.56 13.16    52
   8/31/2016 01:00    54  0.00  0.00  51.2  4.93 13.15    50
   8/30/2016 24:00    55  0.00  0.00  50.1  8.57 13.13    49
   8/30/2016 23:00    56  0.00  0.00  49.4 26.04 13.12    47
   8/30/2016 22:00    56  0.00  0.00  48.7  8.33 13.10    49


CLICK TO VIEW GRAPH!!